sensor_id;sensor_type;location;lat;lon;timestamp;P1;durP1;ratioP1;P2;durP2;ratioP2
17201;SDS011;8717;53.588;10.176;2023-02-13T00:00:25;17.80;;;11.43;;
17201;SDS011;8717;53.588;10.176;2023-02-13T00:02:52;17.63;;;11.77;;
17201;SDS011;8717;53.588;10.176;2023-02-13T00:05:18;19.43;;;12.73;;
17201;SDS011;8717;53.588;10.176;2023-02-13T00:07:45;19.07;;;12.23;;
17201;SDS011;8717;53.588;10.176;2023-02-13T00:10:12;17.13;;;11.20;;
17201;SDS011;8717;53.588;10.176;2023-02-13T00:12:39;17.63;;;11.27;;
17201;SDS011;8717;53.588;10.176;2023-02-13T00:15:06;19.20;;;12.77;;
17201;SDS011;8717;53.588;10.176;2023-02-13T00:17:35;15.43;;;11.23;;
17201;SDS011;8717;53.588;10.176;2023-02-13T00:20:02;19.03;;;12.23;;
17201;SDS011;8717;53.588;10.176;2023-02-13T00:22:29;16.67;;;11.47;;
17201;SDS011;8717;53.588;10.176;2023-02-13T00:25:01;17.67;;;11.30;;
17201;SDS011;8717;53.588;10.176;2023-02-13T00:27:29;15.77;;;10.97;;
17201;SDS011;8717;53.588;10.176;2023-02-13T00:29:58;17.60;;;11.17;;
17201;SDS011;8717;53.588;10.176;2023-02-13T00:32:27;18.37;;;12.20;;
17201;SDS011;8717;53.588;10.176;2023-02-13T00:34:57;17.23;;;11.43;;
17201;SDS011;8717;53.588;10.176;2023-02-13T00:37:24;16.83;;;12.17;;
17201;SDS011;8717;53.588;10.176;2023-02-13T00:39:51;18.77;;;12.40;;
17201;SDS011;8717;53.588;10.176;2023-02-13T00:42:19;18.47;;;12.73;;
17201;SDS011;8717;53.588;10.176;2023-02-13T00:44:48;18.17;;;12.50;;
17201;SDS011;8717;53.588;10.176;2023-02-13T00:47:18;19.40;;;12.33;;
17201;SDS011;8717;53.588;10.176;2023-02-13T00:49:46;20.40;;;12.77;;
17201;SDS011;8717;53.588;10.176;2023-02-13T00:52:14;20.70;;;13.77;;
17201;SDS011;8717;53.588;10.176;2023-02-13T00:54:42;20.63;;;13.33;;
17201;SDS011;8717;53.588;10.176;2023-02-13T00:57:09;22.67;;;13.70;;
17201;SDS011;8717;53.588;10.176;2023-02-13T00:59:35;18.93;;;13.23;;
17201;SDS011;8717;53.588;10.176;2023-02-13T01:02:02;21.70;;;14.47;;
17201;SDS011;8717;53.588;10.176;2023-02-13T01:04:29;24.27;;;13.27;;
17201;SDS011;8717;53.588;10.176;2023-02-13T01:06:58;20.73;;;14.33;;
17201;SDS011;8717;53.588;10.176;2023-02-13T01:09:26;20.63;;;14.03;;
17201;SDS011;8717;53.588;10.176;2023-02-13T01:11:53;20.20;;;14.53;;
17201;SDS011;8717;53.588;10.176;2023-02-13T01:14:19;22.03;;;14.70;;
17201;SDS011;8717;53.588;10.176;2023-02-13T01:16:47;22.50;;;14.70;;
17201;SDS011;8717;53.588;10.176;2023-02-13T01:19:14;22.07;;;14.33;;
17201;SDS011;8717;53.588;10.176;2023-02-13T01:21:41;20.00;;;14.30;;
17201;SDS011;8717;53.588;10.176;2023-02-13T01:24:09;22.83;;;14.90;;
17201;SDS011;8717;53.588;10.176;2023-02-13T01:26:37;22.83;;;14.50;;
17201;SDS011;8717;53.588;10.176;2023-02-13T01:29:04;19.60;;;13.67;;
17201;SDS011;8717;53.588;10.176;2023-02-13T01:31:31;22.67;;;14.77;;
17201;SDS011;8717;53.588;10.176;2023-02-13T01:33:58;21.63;;;14.80;;
17201;SDS011;8717;53.588;10.176;2023-02-13T01:36:25;21.47;;;14.20;;
17201;SDS011;8717;53.588;10.176;2023-02-13T01:38:53;19.87;;;14.10;;
17201;SDS011;8717;53.588;10.176;2023-02-13T01:41:22;19.53;;;14.03;;
17201;SDS011;8717;53.588;10.176;2023-02-13T01:43:52;22.10;;;14.00;;
17201;SDS011;8717;53.588;10.176;2023-02-13T01:46:22;20.70;;;14.30;;
17201;SDS011;8717;53.588;10.176;2023-02-13T01:48:54;22.93;;;15.57;;
17201;SDS011;8717;53.588;10.176;2023-02-13T01:51:24;24.10;;;15.57;;
17201;SDS011;8717;53.588;10.176;2023-02-13T01:53:56;18.87;;;14.03;;
17201;SDS011;8717;53.588;10.176;2023-02-13T01:56:27;22.80;;;14.67;;
17201;SDS011;8717;53.588;10.176;2023-02-13T01:58:58;21.53;;;14.53;;
17201;SDS011;8717;53.588;10.176;2023-02-13T02:01:27;22.57;;;13.93;;
17201;SDS011;8717;53.588;10.176;2023-02-13T02:03:56;23.40;;;14.63;;
17201;SDS011;8717;53.588;10.176;2023-02-13T02:06:30;20.20;;;13.87;;
17201;SDS011;8717;53.588;10.176;2023-02-13T02:09:00;21.97;;;14.50;;
17201;SDS011;8717;53.588;10.176;2023-02-13T02:11:33;21.77;;;14.13;;
17201;SDS011;8717;53.588;10.176;2023-02-13T02:14:06;22.17;;;14.60;;
17201;SDS011;8717;53.588;10.176;2023-02-13T02:16:33;22.43;;;14.03;;
17201;SDS011;8717;53.588;10.176;2023-02-13T02:19:03;21.77;;;14.60;;
17201;SDS011;8717;53.588;10.176;2023-02-13T02:21:44;21.97;;;13.77;;
17201;SDS011;8717;53.588;10.176;2023-02-13T02:24:25;19.83;;;13.60;;
17201;SDS011;8717;53.588;10.176;2023-02-13T02:27:17;20.33;;;13.40;;
17201;SDS011;8717;53.588;10.176;2023-02-13T02:33:13;21.33;;;14.10;;
17201;SDS011;8717;53.588;10.176;2023-02-13T02:35:49;18.80;;;12.67;;
17201;SDS011;8717;53.588;10.176;2023-02-13T02:38:27;23.53;;;13.87;;
17201;SDS011;8717;53.588;10.176;2023-02-13T02:41:06;18.23;;;12.47;;
17201;SDS011;8717;53.588;10.176;2023-02-13T02:44:02;19.03;;;13.33;;
17201;SDS011;8717;53.588;10.176;2023-02-13T02:46:42;17.33;;;13.30;;
17201;SDS011;8717;53.588;10.176;2023-02-13T02:49:36;21.63;;;13.27;;
17201;SDS011;8717;53.588;10.176;2023-02-13T02:52:26;19.47;;;12.77;;
17201;SDS011;8717;53.588;10.176;2023-02-13T02:55:03;15.87;;;12.20;;
17201;SDS011;8717;53.588;10.176;2023-02-13T02:57:40;18.53;;;12.50;;
17201;SDS011;8717;53.588;10.176;2023-02-13T03:00:28;19.57;;;12.43;;
17201;SDS011;8717;53.588;10.176;2023-02-13T03:03:18;19.20;;;12.60;;
17201;SDS011;8717;53.588;10.176;2023-02-13T03:06:08;19.10;;;12.53;;
17201;SDS011;8717;53.588;10.176;2023-02-13T03:08:39;20.40;;;12.13;;
17201;SDS011;8717;53.588;10.176;2023-02-13T03:11:27;17.80;;;11.93;;
17201;SDS011;8717;53.588;10.176;2023-02-13T03:14:12;20.27;;;11.53;;
17201;SDS011;8717;53.588;10.176;2023-02-13T03:16:43;17.70;;;11.50;;
17201;SDS011;8717;53.588;10.176;2023-02-13T03:19:30;16.53;;;11.83;;
17201;SDS011;8717;53.588;10.176;2023-02-13T03:22:25;16.97;;;11.43;;
17201;SDS011;8717;53.588;10.176;2023-02-13T03:24:59;16.77;;;11.67;;
17201;SDS011;8717;53.588;10.176;2023-02-13T03:27:36;17.63;;;11.90;;
17201;SDS011;8717;53.588;10.176;2023-02-13T03:30:33;15.43;;;11.07;;
17201;SDS011;8717;53.588;10.176;2023-02-13T03:33:13;16.90;;;11.43;;
17201;SDS011;8717;53.588;10.176;2023-02-13T03:35:48;18.77;;;11.77;;
17201;SDS011;8717;53.588;10.176;2023-02-13T03:38:44;16.83;;;11.73;;
17201;SDS011;8717;53.588;10.176;2023-02-13T03:41:19;19.23;;;11.30;;
17201;SDS011;8717;53.588;10.176;2023-02-13T03:43:53;16.53;;;11.10;;
17201;SDS011;8717;53.588;10.176;2023-02-13T03:46:27;15.97;;;11.40;;
17201;SDS011;8717;53.588;10.176;2023-02-13T03:48:59;18.93;;;11.97;;
17201;SDS011;8717;53.588;10.176;2023-02-13T03:51:48;16.03;;;11.30;;
17201;SDS011;8717;53.588;10.176;2023-02-13T03:54:20;16.33;;;11.07;;
17201;SDS011;8717;53.588;10.176;2023-02-13T03:57:08;16.47;;;11.47;;
17201;SDS011;8717;53.588;10.176;2023-02-13T03:59:55;18.33;;;11.90;;
17201;SDS011;8717;53.588;10.176;2023-02-13T04:02:24;13.40;;;10.77;;
17201;SDS011;8717;53.588;10.176;2023-02-13T04:04:57;15.97;;;11.17;;
17201;SDS011;8717;53.588;10.176;2023-02-13T04:07:29;15.13;;;10.43;;
17201;SDS011;8717;53.588;10.176;2023-02-13T04:09:59;15.97;;;10.77;;
17201;SDS011;8717;53.588;10.176;2023-02-13T04:12:31;14.50;;;10.70;;
17201;SDS011;8717;53.588;10.176;2023-02-13T04:15:05;14.23;;;10.57;;
17201;SDS011;8717;53.588;10.176;2023-02-13T04:17:35;15.43;;;10.97;;
17201;SDS011;8717;53.588;10.176;2023-02-13T04:20:05;16.67;;;11.47;;
17201;SDS011;8717;53.588;10.176;2023-02-13T04:22:33;15.77;;;11.00;;
17201;SDS011;8717;53.588;10.176;2023-02-13T04:25:01;14.97;;;10.77;;
17201;SDS011;8717;53.588;10.176;2023-02-13T04:27:28;15.13;;;11.17;;
17201;SDS011;8717;53.588;10.176;2023-02-13T04:29:55;13.97;;;10.87;;
17201;SDS011;8717;53.588;10.176;2023-02-13T04:32:21;13.73;;;10.53;;
17201;SDS011;8717;53.588;10.176;2023-02-13T04:34:48;16.30;;;11.20;;
17201;SDS011;8717;53.588;10.176;2023-02-13T04:37:15;14.83;;;10.30;;
17201;SDS011;8717;53.588;10.176;2023-02-13T04:39:42;15.27;;;11.10;;
17201;SDS011;8717;53.588;10.176;2023-02-13T04:42:10;15.07;;;9.27;;
17201;SDS011;8717;53.588;10.176;2023-02-13T04:44:37;12.57;;;9.20;;
17201;SDS011;8717;53.588;10.176;2023-02-13T04:47:04;16.77;;;10.50;;
17201;SDS011;8717;53.588;10.176;2023-02-13T04:49:31;16.47;;;10.30;;
17201;SDS011;8717;53.588;10.176;2023-02-13T04:51:58;14.30;;;10.07;;
17201;SDS011;8717;53.588;10.176;2023-02-13T04:54:25;13.83;;;10.00;;
17201;SDS011;8717;53.588;10.176;2023-02-13T04:56:51;12.97;;;9.83;;
17201;SDS011;8717;53.588;10.176;2023-02-13T04:59:20;14.30;;;10.70;;
17201;SDS011;8717;53.588;10.176;2023-02-13T05:01:46;13.00;;;9.30;;
17201;SDS011;8717;53.588;10.176;2023-02-13T05:04:13;13.17;;;9.20;;
17201;SDS011;8717;53.588;10.176;2023-02-13T05:06:41;14.10;;;10.00;;
17201;SDS011;8717;53.588;10.176;2023-02-13T05:09:08;13.30;;;9.90;;
17201;SDS011;8717;53.588;10.176;2023-02-13T05:11:36;13.03;;;9.37;;
17201;SDS011;8717;53.588;10.176;2023-02-13T05:14:02;11.90;;;9.27;;
17201;SDS011;8717;53.588;10.176;2023-02-13T05:16:31;14.20;;;9.90;;
17201;SDS011;8717;53.588;10.176;2023-02-13T05:18:58;12.33;;;9.40;;
17201;SDS011;8717;53.588;10.176;2023-02-13T05:21:25;14.67;;;9.90;;
17201;SDS011;8717;53.588;10.176;2023-02-13T05:24:10;12.50;;;9.30;;
17201;SDS011;8717;53.588;10.176;2023-02-13T05:26:37;13.47;;;9.20;;
17201;SDS011;8717;53.588;10.176;2023-02-13T05:29:04;13.77;;;9.70;;
17201;SDS011;8717;53.588;10.176;2023-02-13T05:31:48;13.63;;;10.10;;
17201;SDS011;8717;53.588;10.176;2023-02-13T05:34:17;13.40;;;9.63;;
17201;SDS011;8717;53.588;10.176;2023-02-13T05:36:45;13.80;;;9.90;;
17201;SDS011;8717;53.588;10.176;2023-02-13T05:39:12;13.77;;;9.87;;
17201;SDS011;8717;53.588;10.176;2023-02-13T05:41:40;17.23;;;9.73;;
17201;SDS011;8717;53.588;10.176;2023-02-13T05:44:07;17.10;;;10.00;;
17201;SDS011;8717;53.588;10.176;2023-02-13T05:46:35;15.77;;;10.37;;
17201;SDS011;8717;53.588;10.176;2023-02-13T05:49:05;15.77;;;10.23;;
17201;SDS011;8717;53.588;10.176;2023-02-13T05:51:32;14.20;;;9.97;;
17201;SDS011;8717;53.588;10.176;2023-02-13T05:53:59;15.57;;;10.33;;
17201;SDS011;8717;53.588;10.176;2023-02-13T05:56:26;12.60;;;9.47;;
17201;SDS011;8717;53.588;10.176;2023-02-13T05:58:53;16.10;;;10.47;;
17201;SDS011;8717;53.588;10.176;2023-02-13T06:01:21;14.30;;;10.10;;
17201;SDS011;8717;53.588;10.176;2023-02-13T06:03:48;15.63;;;10.23;;
17201;SDS011;8717;53.588;10.176;2023-02-13T06:06:17;12.73;;;9.83;;
17201;SDS011;8717;53.588;10.176;2023-02-13T06:08:44;13.67;;;10.00;;
17201;SDS011;8717;53.588;10.176;2023-02-13T06:11:10;15.03;;;10.30;;
17201;SDS011;8717;53.588;10.176;2023-02-13T06:13:37;17.33;;;11.70;;
17201;SDS011;8717;53.588;10.176;2023-02-13T06:16:05;13.83;;;10.57;;
17201;SDS011;8717;53.588;10.176;2023-02-13T06:18:32;14.43;;;10.93;;
17201;SDS011;8717;53.588;10.176;2023-02-13T06:20:59;15.03;;;10.30;;
17201;SDS011;8717;53.588;10.176;2023-02-13T06:23:27;14.37;;;10.33;;
17201;SDS011;8717;53.588;10.176;2023-02-13T06:25:54;15.70;;;10.53;;
17201;SDS011;8717;53.588;10.176;2023-02-13T06:28:21;14.33;;;10.53;;
17201;SDS011;8717;53.588;10.176;2023-02-13T06:30:48;16.97;;;10.77;;
17201;SDS011;8717;53.588;10.176;2023-02-13T06:33:14;13.90;;;10.80;;
17201;SDS011;8717;53.588;10.176;2023-02-13T06:35:41;14.20;;;10.70;;
17201;SDS011;8717;53.588;10.176;2023-02-13T06:38:11;15.87;;;11.13;;
17201;SDS011;8717;53.588;10.176;2023-02-13T06:40:39;14.70;;;11.00;;
17201;SDS011;8717;53.588;10.176;2023-02-13T06:43:07;16.53;;;11.70;;
17201;SDS011;8717;53.588;10.176;2023-02-13T06:45:34;13.13;;;10.17;;
17201;SDS011;8717;53.588;10.176;2023-02-13T06:48:02;17.27;;;11.43;;
17201;SDS011;8717;53.588;10.176;2023-02-13T06:50:29;17.90;;;11.40;;
17201;SDS011;8717;53.588;10.176;2023-02-13T06:52:59;17.30;;;11.93;;
17201;SDS011;8717;53.588;10.176;2023-02-13T06:55:27;17.13;;;11.50;;
17201;SDS011;8717;53.588;10.176;2023-02-13T06:57:55;16.10;;;11.10;;
17201;SDS011;8717;53.588;10.176;2023-02-13T07:00:22;15.20;;;11.10;;
17201;SDS011;8717;53.588;10.176;2023-02-13T07:02:50;13.83;;;10.13;;
17201;SDS011;8717;53.588;10.176;2023-02-13T07:05:17;16.87;;;11.37;;
17201;SDS011;8717;53.588;10.176;2023-02-13T07:07:46;16.53;;;11.33;;
17201;SDS011;8717;53.588;10.176;2023-02-13T07:10:13;14.80;;;10.97;;
17201;SDS011;8717;53.588;10.176;2023-02-13T07:12:41;15.33;;;11.23;;
17201;SDS011;8717;53.588;10.176;2023-02-13T07:15:09;17.77;;;11.53;;
17201;SDS011;8717;53.588;10.176;2023-02-13T07:17:39;17.47;;;12.07;;
17201;SDS011;8717;53.588;10.176;2023-02-13T07:20:07;18.07;;;11.73;;
17201;SDS011;8717;53.588;10.176;2023-02-13T07:22:34;17.30;;;11.60;;
17201;SDS011;8717;53.588;10.176;2023-02-13T07:25:01;17.00;;;11.97;;
17201;SDS011;8717;53.588;10.176;2023-02-13T07:27:28;17.17;;;11.83;;
17201;SDS011;8717;53.588;10.176;2023-02-13T07:29:55;17.80;;;11.27;;
17201;SDS011;8717;53.588;10.176;2023-02-13T07:32:24;20.43;;;11.47;;
17201;SDS011;8717;53.588;10.176;2023-02-13T07:34:51;18.33;;;11.90;;
17201;SDS011;8717;53.588;10.176;2023-02-13T07:37:17;16.93;;;11.33;;
17201;SDS011;8717;53.588;10.176;2023-02-13T07:39:44;15.40;;;11.97;;
17201;SDS011;8717;53.588;10.176;2023-02-13T07:42:11;15.37;;;11.53;;
17201;SDS011;8717;53.588;10.176;2023-02-13T07:44:37;17.50;;;12.17;;
17201;SDS011;8717;53.588;10.176;2023-02-13T07:47:04;16.30;;;10.90;;
17201;SDS011;8717;53.588;10.176;2023-02-13T07:49:32;15.73;;;11.83;;
17201;SDS011;8717;53.588;10.176;2023-02-13T07:52:01;15.47;;;11.67;;
17201;SDS011;8717;53.588;10.176;2023-02-13T07:54:27;17.97;;;11.77;;
17201;SDS011;8717;53.588;10.176;2023-02-13T07:56:54;17.70;;;12.20;;
17201;SDS011;8717;53.588;10.176;2023-02-13T07:59:21;15.80;;;11.50;;
17201;SDS011;8717;53.588;10.176;2023-02-13T08:01:48;15.37;;;11.43;;
17201;SDS011;8717;53.588;10.176;2023-02-13T08:04:14;16.90;;;11.73;;
17201;SDS011;8717;53.588;10.176;2023-02-13T08:06:44;16.00;;;11.73;;
17201;SDS011;8717;53.588;10.176;2023-02-13T08:09:13;16.07;;;11.50;;
17201;SDS011;8717;53.588;10.176;2023-02-13T08:12:05;16.07;;;12.17;;
17201;SDS011;8717;53.588;10.176;2023-02-13T08:14:36;16.07;;;11.70;;
17201;SDS011;8717;53.588;10.176;2023-02-13T08:17:02;16.07;;;11.20;;
17201;SDS011;8717;53.588;10.176;2023-02-13T08:19:29;17.23;;;12.23;;
17201;SDS011;8717;53.588;10.176;2023-02-13T08:21:57;17.70;;;12.13;;
17201;SDS011;8717;53.588;10.176;2023-02-13T08:24:24;17.47;;;12.27;;
17201;SDS011;8717;53.588;10.176;2023-02-13T08:26:50;17.93;;;12.00;;
17201;SDS011;8717;53.588;10.176;2023-02-13T08:29:17;16.00;;;11.37;;
17201;SDS011;8717;53.588;10.176;2023-02-13T08:31:44;17.13;;;12.33;;
17201;SDS011;8717;53.588;10.176;2023-02-13T08:34:10;16.47;;;11.97;;
17201;SDS011;8717;53.588;10.176;2023-02-13T08:36:40;19.53;;;12.00;;
17201;SDS011;8717;53.588;10.176;2023-02-13T08:39:09;17.00;;;11.53;;
17201;SDS011;8717;53.588;10.176;2023-02-13T08:41:35;16.57;;;11.97;;
17201;SDS011;8717;53.588;10.176;2023-02-13T08:44:02;17.40;;;12.50;;
17201;SDS011;8717;53.588;10.176;2023-02-13T08:46:29;18.40;;;12.87;;
17201;SDS011;8717;53.588;10.176;2023-02-13T08:48:56;17.77;;;12.57;;
17201;SDS011;8717;53.588;10.176;2023-02-13T08:51:23;18.77;;;12.77;;
17201;SDS011;8717;53.588;10.176;2023-02-13T08:53:49;15.37;;;11.67;;
17201;SDS011;8717;53.588;10.176;2023-02-13T08:56:17;18.43;;;11.60;;
17201;SDS011;8717;53.588;10.176;2023-02-13T08:58:46;16.43;;;11.83;;
17201;SDS011;8717;53.588;10.176;2023-02-13T09:01:13;18.47;;;12.17;;
17201;SDS011;8717;53.588;10.176;2023-02-13T09:03:40;16.27;;;11.53;;
17201;SDS011;8717;53.588;10.176;2023-02-13T09:06:07;18.03;;;12.67;;
17201;SDS011;8717;53.588;10.176;2023-02-13T09:08:34;15.93;;;11.43;;
17201;SDS011;8717;53.588;10.176;2023-02-13T09:11:01;16.37;;;12.13;;
17201;SDS011;8717;53.588;10.176;2023-02-13T09:13:32;17.87;;;13.07;;
17201;SDS011;8717;53.588;10.176;2023-02-13T09:16:01;16.97;;;12.60;;
17201;SDS011;8717;53.588;10.176;2023-02-13T09:18:29;17.33;;;12.17;;
17201;SDS011;8717;53.588;10.176;2023-02-13T09:20:56;16.33;;;12.33;;
17201;SDS011;8717;53.588;10.176;2023-02-13T09:23:25;17.40;;;12.83;;
17201;SDS011;8717;53.588;10.176;2023-02-13T09:25:52;17.47;;;11.87;;
17201;SDS011;8717;53.588;10.176;2023-02-13T09:28:18;17.37;;;12.63;;
17201;SDS011;8717;53.588;10.176;2023-02-13T09:30:47;16.43;;;12.37;;
17201;SDS011;8717;53.588;10.176;2023-02-13T09:33:14;19.07;;;12.03;;
17201;SDS011;8717;53.588;10.176;2023-02-13T09:35:40;18.10;;;12.33;;
17201;SDS011;8717;53.588;10.176;2023-02-13T09:38:08;17.00;;;11.77;;
17201;SDS011;8717;53.588;10.176;2023-02-13T09:40:36;16.50;;;11.73;;
17201;SDS011;8717;53.588;10.176;2023-02-13T09:43:06;22.77;;;14.43;;
17201;SDS011;8717;53.588;10.176;2023-02-13T09:45:38;19.90;;;12.37;;
17201;SDS011;8717;53.588;10.176;2023-02-13T09:48:08;18.53;;;12.40;;
17201;SDS011;8717;53.588;10.176;2023-02-13T09:50:41;16.30;;;12.60;;
17201;SDS011;8717;53.588;10.176;2023-02-13T09:53:09;16.37;;;11.57;;
17201;SDS011;8717;53.588;10.176;2023-02-13T09:55:46;15.67;;;11.67;;
17201;SDS011;8717;53.588;10.176;2023-02-13T09:58:24;18.67;;;13.10;;
17201;SDS011;8717;53.588;10.176;2023-02-13T10:00:59;16.37;;;12.17;;
17201;SDS011;8717;53.588;10.176;2023-02-13T10:03:36;19.23;;;12.57;;
17201;SDS011;8717;53.588;10.176;2023-02-13T10:06:09;18.80;;;12.63;;
17201;SDS011;8717;53.588;10.176;2023-02-13T10:08:48;18.30;;;13.07;;
17201;SDS011;8717;53.588;10.176;2023-02-13T10:11:27;14.10;;;10.87;;
17201;SDS011;8717;53.588;10.176;2023-02-13T10:14:05;16.47;;;11.77;;
17201;SDS011;8717;53.588;10.176;2023-02-13T10:16:41;16.47;;;11.60;;
17201;SDS011;8717;53.588;10.176;2023-02-13T10:19:14;14.53;;;11.77;;
17201;SDS011;8717;53.588;10.176;2023-02-13T10:21:53;16.63;;;12.07;;
17201;SDS011;8717;53.588;10.176;2023-02-13T10:24:29;15.20;;;11.93;;
17201;SDS011;8717;53.588;10.176;2023-02-13T10:27:00;18.03;;;12.23;;
17201;SDS011;8717;53.588;10.176;2023-02-13T10:29:35;16.17;;;11.73;;
17201;SDS011;8717;53.588;10.176;2023-02-13T10:32:24;17.33;;;12.00;;
17201;SDS011;8717;53.588;10.176;2023-02-13T10:34:56;16.70;;;11.90;;
17201;SDS011;8717;53.588;10.176;2023-02-13T10:37:26;18.27;;;12.17;;
17201;SDS011;8717;53.588;10.176;2023-02-13T10:39:54;15.97;;;11.90;;
17201;SDS011;8717;53.588;10.176;2023-02-13T10:42:22;18.57;;;13.13;;
17201;SDS011;8717;53.588;10.176;2023-02-13T10:45:07;14.53;;;11.30;;
17201;SDS011;8717;53.588;10.176;2023-02-13T10:47:50;17.10;;;11.80;;
17201;SDS011;8717;53.588;10.176;2023-02-13T10:50:29;17.17;;;11.83;;
17201;SDS011;8717;53.588;10.176;2023-02-13T10:53:05;16.60;;;11.90;;
17201;SDS011;8717;53.588;10.176;2023-02-13T10:55:50;16.90;;;11.30;;
17201;SDS011;8717;53.588;10.176;2023-02-13T10:58:47;18.23;;;12.70;;
17201;SDS011;8717;53.588;10.176;2023-02-13T11:01:22;17.63;;;12.43;;
17201;SDS011;8717;53.588;10.176;2023-02-13T11:04:00;15.27;;;12.33;;
17201;SDS011;8717;53.588;10.176;2023-02-13T11:06:31;15.27;;;11.70;;
17201;SDS011;8717;53.588;10.176;2023-02-13T11:09:02;17.37;;;12.53;;
17201;SDS011;8717;53.588;10.176;2023-02-13T11:11:30;16.87;;;13.13;;
17201;SDS011;8717;53.588;10.176;2023-02-13T11:14:09;16.43;;;12.07;;
17201;SDS011;8717;53.588;10.176;2023-02-13T11:16:48;16.03;;;11.60;;
17201;SDS011;8717;53.588;10.176;2023-02-13T11:19:19;16.40;;;11.87;;
17201;SDS011;8717;53.588;10.176;2023-02-13T11:21:56;16.63;;;11.93;;
17201;SDS011;8717;53.588;10.176;2023-02-13T11:24:25;17.27;;;12.10;;
17201;SDS011;8717;53.588;10.176;2023-02-13T11:26:55;16.57;;;11.97;;
17201;SDS011;8717;53.588;10.176;2023-02-13T11:29:26;18.07;;;12.70;;
17201;SDS011;8717;53.588;10.176;2023-02-13T11:32:16;19.23;;;12.40;;
17201;SDS011;8717;53.588;10.176;2023-02-13T11:34:45;14.87;;;11.77;;
17201;SDS011;8717;53.588;10.176;2023-02-13T11:37:15;15.90;;;11.77;;
17201;SDS011;8717;53.588;10.176;2023-02-13T11:39:47;18.13;;;11.73;;
17201;SDS011;8717;53.588;10.176;2023-02-13T11:42:17;19.30;;;12.27;;
17201;SDS011;8717;53.588;10.176;2023-02-13T11:44:48;17.87;;;12.40;;
17201;SDS011;8717;53.588;10.176;2023-02-13T11:47:28;17.93;;;11.87;;
17201;SDS011;8717;53.588;10.176;2023-02-13T11:50:00;20.60;;;12.63;;
17201;SDS011;8717;53.588;10.176;2023-02-13T11:52:30;17.53;;;12.40;;
17201;SDS011;8717;53.588;10.176;2023-02-13T11:54:59;19.53;;;13.13;;
17201;SDS011;8717;53.588;10.176;2023-02-13T11:57:28;20.93;;;13.73;;
17201;SDS011;8717;53.588;10.176;2023-02-13T11:59:57;17.27;;;12.27;;
17201;SDS011;8717;53.588;10.176;2023-02-13T12:02:25;18.50;;;13.20;;
17201;SDS011;8717;53.588;10.176;2023-02-13T12:04:53;19.07;;;12.77;;
17201;SDS011;8717;53.588;10.176;2023-02-13T12:07:40;20.90;;;12.60;;
17201;SDS011;8717;53.588;10.176;2023-02-13T12:10:11;18.83;;;12.80;;
17201;SDS011;8717;53.588;10.176;2023-02-13T12:12:46;20.13;;;13.03;;
17201;SDS011;8717;53.588;10.176;2023-02-13T12:15:19;21.70;;;13.87;;
17201;SDS011;8717;53.588;10.176;2023-02-13T12:17:49;19.60;;;13.53;;
17201;SDS011;8717;53.588;10.176;2023-02-13T12:20:25;22.63;;;14.73;;
17201;SDS011;8717;53.588;10.176;2023-02-13T12:23:02;20.20;;;13.80;;
17201;SDS011;8717;53.588;10.176;2023-02-13T12:25:45;22.63;;;14.43;;
17201;SDS011;8717;53.588;10.176;2023-02-13T12:28:22;21.53;;;13.47;;
17201;SDS011;8717;53.588;10.176;2023-02-13T12:31:08;23.13;;;14.80;;
17201;SDS011;8717;53.588;10.176;2023-02-13T12:33:57;22.73;;;13.93;;
17201;SDS011;8717;53.588;10.176;2023-02-13T12:36:57;22.83;;;14.83;;
17201;SDS011;8717;53.588;10.176;2023-02-13T12:39:37;23.33;;;14.80;;
17201;SDS011;8717;53.588;10.176;2023-02-13T12:42:14;23.67;;;15.47;;
17201;SDS011;8717;53.588;10.176;2023-02-13T12:44:59;22.90;;;15.63;;
17201;SDS011;8717;53.588;10.176;2023-02-13T12:47:36;24.33;;;15.73;;
17201;SDS011;8717;53.588;10.176;2023-02-13T12:50:33;23.07;;;15.43;;
17201;SDS011;8717;53.588;10.176;2023-02-13T12:53:17;22.67;;;15.57;;
17201;SDS011;8717;53.588;10.176;2023-02-13T12:55:59;25.00;;;15.70;;
17201;SDS011;8717;53.588;10.176;2023-02-13T12:58:47;23.17;;;15.07;;
17201;SDS011;8717;53.588;10.176;2023-02-13T13:01:25;24.17;;;15.03;;
17201;SDS011;8717;53.588;10.176;2023-02-13T13:04:13;21.67;;;14.27;;
17201;SDS011;8717;53.588;10.176;2023-02-13T13:06:51;22.60;;;15.10;;
17201;SDS011;8717;53.588;10.176;2023-02-13T13:09:36;23.40;;;16.40;;
17201;SDS011;8717;53.588;10.176;2023-02-13T13:12:22;24.10;;;15.73;;
17201;SDS011;8717;53.588;10.176;2023-02-13T13:14:57;25.57;;;16.13;;
17201;SDS011;8717;53.588;10.176;2023-02-13T13:17:36;24.93;;;16.17;;
17201;SDS011;8717;53.588;10.176;2023-02-13T13:20:21;24.17;;;16.07;;
17201;SDS011;8717;53.588;10.176;2023-02-13T13:23:07;27.70;;;17.40;;
17201;SDS011;8717;53.588;10.176;2023-02-13T13:25:39;23.80;;;15.87;;
17201;SDS011;8717;53.588;10.176;2023-02-13T13:28:16;26.00;;;16.67;;
17201;SDS011;8717;53.588;10.176;2023-02-13T13:30:46;26.47;;;16.97;;
17201;SDS011;8717;53.588;10.176;2023-02-13T13:33:16;25.73;;;17.50;;
17201;SDS011;8717;53.588;10.176;2023-02-13T13:35:45;26.27;;;16.87;;
17201;SDS011;8717;53.588;10.176;2023-02-13T13:38:20;26.17;;;17.50;;
17201;SDS011;8717;53.588;10.176;2023-02-13T13:40:59;26.47;;;17.43;;
17201;SDS011;8717;53.588;10.176;2023-02-13T13:43:32;28.60;;;18.43;;
17201;SDS011;8717;53.588;10.176;2023-02-13T13:46:11;26.90;;;17.70;;
17201;SDS011;8717;53.588;10.176;2023-02-13T13:48:54;26.43;;;16.97;;
17201;SDS011;8717;53.588;10.176;2023-02-13T13:51:31;26.83;;;17.43;;
17201;SDS011;8717;53.588;10.176;2023-02-13T13:54:18;25.67;;;16.50;;
17201;SDS011;8717;53.588;10.176;2023-02-13T14:00:01;28.10;;;17.93;;
17201;SDS011;8717;53.588;10.176;2023-02-13T14:02:45;24.17;;;17.37;;
17201;SDS011;8717;53.588;10.176;2023-02-13T14:05:18;25.10;;;16.53;;
17201;SDS011;8717;53.588;10.176;2023-02-13T14:07:50;26.27;;;17.37;;
17201;SDS011;8717;53.588;10.176;2023-02-13T14:13:32;25.00;;;16.50;;
17201;SDS011;8717;53.588;10.176;2023-02-13T14:16:04;27.57;;;17.77;;
17201;SDS011;8717;53.588;10.176;2023-02-13T14:18:34;26.77;;;17.37;;
17201;SDS011;8717;53.588;10.176;2023-02-13T14:21:06;24.67;;;16.33;;
17201;SDS011;8717;53.588;10.176;2023-02-13T14:23:37;26.00;;;17.67;;
17201;SDS011;8717;53.588;10.176;2023-02-13T14:26:24;29.50;;;17.80;;
17201;SDS011;8717;53.588;10.176;2023-02-13T14:29:14;25.80;;;17.00;;
17201;SDS011;8717;53.588;10.176;2023-02-13T14:32:01;27.23;;;16.93;;
17201;SDS011;8717;53.588;10.176;2023-02-13T14:34:31;24.47;;;16.67;;
17201;SDS011;8717;53.588;10.176;2023-02-13T14:37:12;28.13;;;16.93;;
17201;SDS011;8717;53.588;10.176;2023-02-13T14:42:39;28.03;;;16.80;;
17201;SDS011;8717;53.588;10.176;2023-02-13T14:45:10;26.70;;;17.60;;
17201;SDS011;8717;53.588;10.176;2023-02-13T14:47:42;28.07;;;17.00;;
17201;SDS011;8717;53.588;10.176;2023-02-13T14:50:19;26.57;;;17.07;;
17201;SDS011;8717;53.588;10.176;2023-02-13T14:52:48;25.90;;;17.20;;
17201;SDS011;8717;53.588;10.176;2023-02-13T14:55:16;26.97;;;18.17;;
17201;SDS011;8717;53.588;10.176;2023-02-13T14:57:56;26.20;;;16.90;;
17201;SDS011;8717;53.588;10.176;2023-02-13T15:00:30;29.93;;;18.03;;
17201;SDS011;8717;53.588;10.176;2023-02-13T15:03:10;26.50;;;17.57;;
17201;SDS011;8717;53.588;10.176;2023-02-13T15:05:47;26.27;;;17.27;;